Time;durP1;ratioP1;P1;durP2;ratioP2;P2;SDS_P1;SDS_P2;PMS_P1;PMS_P2;Temp;Humidity;BMP_temperature;BMP_pressure;BME280_temperature;BME280_humidity;BME280_pressure;Samples;Min_cycle;Max_cycle;Signal;HPM_P1;HPM_P2
2021/11/02 00:01:26;;;;;;;15.38;10.25;;;6.10;99.90;;;;;;5051434;28;20116;-66
2021/11/02 00:03:52;;;;;;;13.02;9.55;;;6.10;99.90;;;;;;5051569;28;20032;-66
2021/11/02 00:06:18;;;;;;;11.68;9.77;;;6.20;99.90;;;;;;5050715;28;20036;-66
2021/11/02 00:08:44;;;;;;;16.63;10.15;;;6.10;99.90;;;;;;5051005;28;20029;-67
2021/11/02 00:11:09;;;;;;;16.10;10.70;;;6.10;99.90;;;;;;5051141;28;20029;-66
2021/11/02 00:13:41;;;;;;;13.05;10.13;;;6.00;99.90;;;;;;5050974;28;20390;-65
2021/11/02 00:16:13;;;;;;;17.80;10.48;;;6.00;99.90;;;;;;5050466;28;20028;-66
2021/11/02 00:18:44;;;;;;;;;;;6.10;99.90;;;;;;5055162;28;20033;-64
2021/11/02 00:21:10;;;;;;;15.73;10.10;;;6.10;99.90;;;;;;5053987;28;19980;-67
2021/11/02 00:23:37;;;;;;;19.00;12.30;;;6.30;99.90;;;;;;5055163;28;20032;-66
2021/11/02 00:26:08;;;;;;;16.65;12.35;;;6.10;99.90;;;;;;5054324;28;20040;-66
2021/11/02 00:28:34;;;;;;;17.67;12.32;;;6.20;99.90;;;;;;5054768;28;20102;-66
2021/11/02 00:31:00;;;;;;;18.17;12.32;;;6.20;99.90;;;;;;5060425;28;20025;-65
2021/11/02 00:33:26;;;;;;;19.08;11.43;;;6.30;99.90;;;;;;5068790;28;20031;-65
2021/11/02 00:35:53;;;;;;;22.77;12.27;;;6.30;99.90;;;;;;5064095;28;20090;-65
2021/11/02 00:38:19;;;;;;;18.50;10.98;;;6.30;99.90;;;;;;5068076;28;20051;-65
2021/11/02 00:40:46;;;;;;;19.13;10.70;;;6.40;99.90;;;;;;5066768;28;20056;-66
2021/11/02 00:43:12;;;;;;;15.70;9.05;;;6.20;99.90;;;;;;5059749;28;20052;-66
2021/11/02 00:45:39;;;;;;;20.65;10.10;;;6.20;99.90;;;;;;5054373;28;20033;-65
2021/11/02 00:48:11;;;;;;;15.18;9.23;;;6.20;99.90;;;;;;5054795;28;20029;-65
2021/11/02 00:50:39;;;;;;;13.68;9.00;;;6.10;99.90;;;;;;5054341;28;20497;-66
2021/11/02 00:53:06;;;;;;;12.85;8.95;;;6.10;99.90;;;;;;5054486;28;20029;-66
2021/11/02 00:55:32;;;;;;;14.10;9.10;;;6.10;99.90;;;;;;5053735;28;20025;-66
2021/11/02 00:58:01;;;;;;;14.65;10.18;;;6.10;99.90;;;;;;5054426;28;20442;-67
2021/11/02 01:00:26;;;;;;;17.80;9.75;;;6.10;99.90;;;;;;5054337;28;20025;-67
2021/11/02 01:02:52;;;;;;;13.20;9.98;;;6.00;99.90;;;;;;5054360;28;20047;-67
2021/11/02 01:05:18;;;;;;;13.85;11.38;;;6.00;99.90;;;;;;5053554;28;20065;-67
2021/11/02 01:07:44;;;;;;;12.38;9.75;;;6.00;99.90;;;;;;5054157;28;20447;-66
2021/11/02 01:10:15;;;;;;;14.80;10.57;;;6.00;99.90;;;;;;5054268;28;20075;-67
2021/11/02 01:12:41;;;;;;;13.80;10.98;;;6.10;99.90;;;;;;5054279;28;20049;-66
2021/11/02 01:15:07;;;;;;;14.80;11.55;;;6.00;99.90;;;;;;5053505;28;20051;-67
2021/11/02 01:17:32;;;;;;;14.13;11.27;;;6.00;99.90;;;;;;5053981;28;20095;-65
2021/11/02 01:19:58;;;;;;;13.50;10.52;;;6.00;99.90;;;;;;5053606;28;20028;-66
2021/11/02 01:22:24;;;;;;;14.05;10.20;;;6.00;99.90;;;;;;5054151;28;20095;-66
2021/11/02 01:24:49;;;;;;;13.55;10.60;;;6.00;99.90;;;;;;5053189;28;20032;-66
2021/11/02 01:27:15;;;;;;;14.00;11.00;;;6.10;99.90;;;;;;5053878;28;20031;-66
2021/11/02 01:29:40;;;;;;;16.38;11.40;;;6.10;99.90;;;;;;5053141;28;20025;-66
2021/11/02 01:32:07;;;;;;;18.00;12.70;;;6.10;99.90;;;;;;5053665;28;20021;-66
2021/11/02 01:34:32;;;;;;;16.45;11.55;;;6.20;99.90;;;;;;5052957;28;20029;-66
2021/11/02 01:36:58;;;;;;;14.65;11.32;;;6.10;99.90;;;;;;5053743;28;20096;-67
2021/11/02 01:39:26;;;;;;;16.67;11.90;;;6.20;99.90;;;;;;5053531;28;20496;-66
2021/11/02 01:41:52;;;;;;;16.90;12.20;;;6.30;99.90;;;;;;5053697;28;20112;-66
2021/11/02 01:44:18;;;;;;;14.55;10.82;;;6.10;99.90;;;;;;5053006;28;20096;-66
2021/11/02 01:46:45;;;;;;;17.33;11.80;;;6.10;99.90;;;;;;5053271;28;20532;-67
2021/11/02 01:49:12;;;;;;;16.55;11.35;;;6.00;99.90;;;;;;5053146;28;20033;-66
2021/11/02 01:51:40;;;;;;;15.90;11.27;;;6.10;99.90;;;;;;5053265;28;20106;-66
2021/11/02 01:54:07;;;;;;;17.38;12.20;;;6.10;99.90;;;;;;5053392;28;20029;-66
2021/11/02 01:56:34;;;;;;;18.50;12.38;;;6.10;99.90;;;;;;5051979;28;20017;-66
2021/11/02 01:59:00;;;;;;;18.90;12.45;;;6.10;99.90;;;;;;5052963;28;20499;-66
2021/11/02 02:02:07;;;;;;;18.23;11.88;;;6.00;99.90;;;;;;5053413;28;20037;-67
2021/11/02 02:05:12;;;;;;;21.73;12.80;;;6.00;99.90;;;;;;5052453;28;20086;-65
2021/11/02 02:07:56;;;;;;;15.55;11.65;;;6.00;99.90;;;;;;5053169;28;20033;-69
2021/11/02 02:10:30;;;;;;;20.77;14.38;;;6.00;99.90;;;;;;5053373;28;20391;-66
2021/11/02 02:13:07;;;;;;;22.17;13.70;;;5.90;99.90;;;;;;5053730;28;20479;-66
2021/11/02 02:15:59;;;;;;;20.40;13.40;;;6.00;99.90;;;;;;5035068;28;20033;-67
2021/11/02 02:18:39;;;;;;;18.52;13.20;;;6.00;99.90;;;;;;5052900;28;20017;-66
2021/11/02 02:21:11;;;;;;;15.95;11.55;;;6.10;99.90;;;;;;5053448;28;20031;-66
2021/11/02 02:24:06;;;;;;;16.08;11.68;;;6.10;99.90;;;;;;5053305;28;20025;-66
2021/11/02 02:26:39;;;;;;;15.52;11.55;;;6.10;99.90;;;;;;5021206;28;20037;-66
2021/11/02 02:29:07;;;;;;;21.05;12.55;;;6.10;99.90;;;;;;5052706;28;20083;-66
2021/11/02 02:31:37;;;;;;;18.40;12.48;;;6.10;99.90;;;;;;5052838;28;20107;-66
2021/11/02 02:34:05;;;;;;;15.45;11.63;;;6.40;99.90;;;;;;5053014;28;20021;-67
2021/11/02 02:36:32;;;;;;;22.30;12.65;;;6.20;99.90;;;;;;5050927;28;20029;-66
2021/11/02 02:39:03;;;;;;;18.15;11.95;;;6.30;99.90;;;;;;5052540;28;20086;-67
2021/11/02 02:41:30;;;;;;;16.08;12.25;;;6.40;99.90;;;;;;5051970;28;20359;-65
2021/11/02 02:43:55;;;;;;;16.58;11.80;;;6.20;99.90;;;;;;5052338;28;20029;-65
2021/11/02 02:46:21;;;;;;;15.75;11.60;;;6.20;99.90;;;;;;5051642;28;20029;-65
2021/11/02 02:48:49;;;;;;;14.38;10.85;;;6.20;99.90;;;;;;5051798;28;20111;-66
2021/11/02 02:51:16;;;;;;;15.73;10.98;;;6.20;99.90;;;;;;5033681;28;20026;-66
2021/11/02 02:53:44;;;;;;;18.25;12.93;;;6.40;99.90;;;;;;5032400;28;20049;-67
2021/11/02 02:56:12;;;;;;;15.85;12.48;;;6.30;99.90;;;;;;5031612;28;20052;-66
2021/11/02 02:58:42;;;;;;;15.35;11.85;;;6.30;99.90;;;;;;5032145;28;20021;-66
2021/11/02 03:01:10;;;;;;;14.15;11.30;;;6.20;99.90;;;;;;5032189;28;20053;-65
2021/11/02 03:03:43;;;;;;;17.90;10.75;;;6.20;99.90;;;;;;5032039;28;20029;-65
2021/11/02 03:06:11;;;;;;;15.75;11.10;;;7.50;99.90;;;;;;5038685;28;20079;-67
2021/11/02 03:08:37;;;;;;;14.50;10.50;;;6.20;99.90;;;;;;5051475;28;20029;-65
2021/11/02 03:11:06;;;;;;;16.98;11.30;;;6.20;99.90;;;;;;5052007;28;20036;-67
2021/11/02 03:13:34;;;;;;;16.98;10.48;;;6.30;99.90;;;;;;5051784;28;20028;-66
2021/11/02 03:16:05;;;;;;;15.20;10.95;;;6.20;99.90;;;;;;5051209;28;20585;-66
2021/11/02 05:07:27;;;;;;;9.63;4.03;;;4.50;99.90;;;;;;5054454;28;20048;-66
2021/11/02 05:59:36;;;;;;;7.30;4.13;;;4.00;99.90;;;;;;5052817;28;20450;-70
2021/11/02 06:30:18;;;;;;;5.95;4.03;;;3.90;99.90;;;;;;5017826;28;20055;-72
2021/11/02 06:32:50;;;;;;;7.55;4.07;;;3.90;99.90;;;;;;5033119;28;20018;-72
2021/11/02 06:35:28;;;;;;;6.05;4.30;;;3.90;99.90;;;;;;5031649;28;20079;-70
2021/11/02 07:17:16;;;;;;;25.23;12.52;;;5.10;99.90;;;;;;5051957;28;20094;-61
2021/11/02 07:20:39;;;;;;;17.60;10.13;;;5.30;99.90;;;;;;5051811;28;20025;-62
2021/11/02 08:47:31;;;;;;;3.28;3.03;;;6.50;99.90;;;;;;5040595;28;20056;-61
2021/11/02 08:49:57;;;;;;;3.70;3.40;;;6.60;99.90;;;;;;5035477;28;20494;-61
2021/11/02 08:52:23;;;;;;;3.60;3.40;;;6.50;99.90;;;;;;5034936;28;20484;-62
2021/11/02 08:54:51;;;;;;;4.80;3.47;;;6.60;99.90;;;;;;5035516;28;20030;-62
2021/11/02 08:57:22;;;;;;;3.33;3.13;;;6.50;99.90;;;;;;5054758;28;20383;-62
2021/11/02 08:59:48;;;;;;;5.47;3.58;;;6.40;99.90;;;;;;5054641;28;20491;-61
2021/11/02 09:02:29;;;;;;;5.82;3.33;;;6.40;99.90;;;;;;5054675;28;20033;-62
2021/11/02 09:05:03;;;;;;;3.88;3.50;;;6.40;99.90;;;;;;5053848;28;20025;-60
2021/11/02 09:07:29;;;;;;;5.75;3.03;;;6.50;99.90;;;;;;5054895;28;20100;-63
2021/11/02 09:09:57;;;;;;;3.72;3.38;;;6.60;99.90;;;;;;5054771;28;20103;-63
2021/11/02 09:12:30;;;;;;;3.80;3.45;;;6.50;99.90;;;;;;5054359;28;20024;-61
2021/11/02 09:14:58;;;;;;;4.50;3.40;;;6.60;99.90;;;;;;5053409;28;20033;-63
2021/11/02 09:17:27;;;;;;;3.63;3.35;;;6.60;99.90;;;;;;5054254;28;20025;-61
2021/11/02 09:19:56;;;;;;;4.95;3.75;;;6.70;99.90;;;;;;5053945;28;20021;-62
2021/11/02 09:22:22;;;;;;;3.53;3.30;;;6.90;99.90;;;;;;5053889;28;20032;-60
2021/11/02 09:24:51;;;;;;;4.18;3.88;;;7.00;99.90;;;;;;5053099;28;20021;-62
2021/11/02 09:27:18;;;;;;;6.25;4.05;;;7.00;99.90;;;;;;5053425;28;20032;-63
2021/11/02 09:29:46;;;;;;;5.18;4.20;;;7.10;99.90;;;;;;5053656;28;20040;-62
2021/11/02 09:32:12;;;;;;;4.30;3.42;;;7.20;99.90;;;;;;5053764;28;20013;-62
2021/11/02 09:34:38;;;;;;;4.30;4.00;;;7.20;99.90;;;;;;5053155;28;20552;-63
2021/11/02 09:37:17;;;;;;;5.28;4.78;;;7.30;99.90;;;;;;5053598;28;20127;-62
2021/11/02 09:39:48;;;;;;;4.72;3.08;;;7.40;99.90;;;;;;5053346;28;20041;-62
2021/11/02 09:42:38;;;;;;;3.70;3.35;;;7.60;99.90;;;;;;5053313;28;20029;-61
2021/11/02 09:45:22;;;;;;;4.38;3.80;;;7.70;99.90;;;;;;5052845;28;20029;-62
2021/11/02 09:48:25;;;;;;;3.45;3.15;;;8.00;99.90;;;;;;5053230;28;20024;-62
2021/11/02 09:51:32;;;;;;;7.22;3.33;;;8.00;99.90;;;;;;5052820;28;20025;-62
2021/11/02 09:54:03;;;;;;;6.35;3.15;;;8.30;99.90;;;;;;5042412;28;20052;-62
2021/11/02 09:56:50;;;;;;;4.68;2.90;;;8.10;99.90;;;;;;5052118;28;20022;-62
2021/11/02 09:59:36;;;;;;;5.32;3.75;;;8.00;99.90;;;;;;5053087;28;20047;-62
2021/11/02 10:02:34;;;;;;;11.38;4.53;;;8.00;99.90;;;;;;5053213;28;20390;-62
2021/11/02 10:05:26;;;;;;;9.40;4.03;;;8.00;99.90;;;;;;5052403;28;20037;-62
2021/11/02 10:08:11;;;;;;;8.43;4.38;;;8.00;99.90;;;;;;5052882;28;20052;-62
2021/11/02 10:11:01;;;;;;;5.75;4.22;;;8.20;99.90;;;;;;5052776;28;20028;-62
2021/11/02 10:13:34;;;;;;;5.85;3.85;;;8.30;99.90;;;;;;5052858;28;20021;-62
2021/11/02 10:16:06;;;;;;;8.25;4.00;;;8.30;99.90;;;;;;5052132;28;20438;-62
2021/11/02 10:18:53;;;;;;;7.00;4.18;;;8.50;99.90;;;;;;5052746;28;20521;-61
2021/11/02 10:21:56;;;;;;;5.80;3.92;;;8.60;99.90;;;;;;5052745;28;20082;-62
2021/11/02 10:24:24;;;;;;;8.07;3.58;;;8.60;99.90;;;;;;5052162;28;20083;-63
2021/11/02 10:27:15;;;;;;;9.45;4.47;;;8.60;99.90;;;;;;5051519;28;20032;-60
2021/11/02 10:29:53;;;;;;;9.20;4.60;;;8.80;99.90;;;;;;5052137;28;20029;-61
2021/11/02 10:32:28;;;;;;;10.65;9.55;;;9.00;99.90;;;;;;5052578;28;20104;-62
2021/11/02 10:35:29;;;;;;;7.00;4.00;;;9.40;99.90;;;;;;5051998;28;20053;-62
2021/11/02 10:38:16;;;;;;;10.85;3.92;;;9.60;99.90;;;;;;5052537;28;20025;-62
2021/11/02 10:40:55;;;;;;;4.38;3.53;;;9.80;99.90;;;;;;5052778;28;20029;-62
2021/11/02 10:43:44;;;;;;;7.15;6.22;;;10.10;99.90;;;;;;5052836;28;20140;-62
2021/11/02 10:46:12;;;;;;;3.92;2.92;;;10.50;99.90;;;;;;5052076;28;20028;-61
2021/11/02 10:48:49;;;;;;;8.32;4.63;;;10.60;99.90;;;;;;5052714;28;20503;-61
2021/11/02 10:51:47;;;;;;;4.88;3.55;;;10.50;99.90;;;;;;5052598;28;20036;-61
2021/11/02 10:54:47;;;;;;;7.95;3.92;;;10.50;99.90;;;;;;5034847;28;20032;-61
2021/11/02 10:57:26;;;;;;;5.22;2.92;;;10.70;99.90;;;;;;5052281;28;20096;-61
2021/11/02 11:00:00;;;;;;;2.92;2.70;;;10.60;99.90;;;;;;5052372;28;20086;-62
2021/11/02 11:02:28;;;;;;;3.85;2.78;;;10.60;99.90;;;;;;5051662;28;20029;-61
2021/11/02 11:05:03;;;;;;;4.80;3.47;;;10.80;99.90;;;;;;5051367;28;20025;-61
2021/11/02 11:07:38;;;;;;;6.50;3.65;;;10.80;99.90;;;;;;5042125;28;20029;-61
2021/11/02 11:10:07;;;;;;;4.50;3.13;;;10.80;99.90;;;;;;5030406;28;20502;-62
2021/11/02 11:12:38;;;;;;;3.30;2.03;;;10.60;99.90;;;;;;5045431;28;20033;-62
2021/11/02 11:15:07;;;;;;;3.30;2.83;;;10.30;99.90;;;;;;5052227;28;20109;-60
2021/11/02 11:17:35;;;;;;;1.67;1.50;;;10.20;99.90;;;;;;5053030;28;20086;-73
2021/11/02 11:20:14;;;;;;;2.47;1.70;;;10.20;99.90;;;;;;5035295;28;20075;-73
2021/11/02 11:22:43;;;;;;;1.00;0.90;;;10.30;99.90;;;;;;5053104;28;20021;-72
2021/11/02 11:25:08;;;;;;;1.23;0.93;;;10.50;99.90;;;;;;5049477;28;20078;-72
2021/11/02 11:27:43;;;;;;;1.00;0.40;;;10.30;99.90;;;;;;5033747;28;20017;-70
2021/11/02 11:30:09;;;;;;;0.80;0.80;;;10.10;99.90;;;;;;5035722;28;20036;-71
2021/11/02 11:32:39;;;;;;;0.63;0.52;;;10.10;99.90;;;;;;5019740;28;20025;-72
2021/11/02 11:35:06;;;;;;;3.40;3.17;;;10.10;99.90;;;;;;5055308;28;20426;-65
2021/11/02 11:37:42;;;;;;;1.55;0.70;;;10.00;99.90;;;;;;5056492;28;20021;-66
2021/11/02 11:40:10;;;;;;;1.58;0.30;;;10.00;99.90;;;;;;5057554;28;20495;-65
2021/11/02 11:42:37;;;;;;;0.90;0.90;;;9.80;99.90;;;;;;5055608;28;20031;-68
2021/11/02 11:45:10;;;;;;;2.03;1.27;;;9.80;99.90;;;;;;5053730;28;20112;-65
2021/11/02 11:47:36;;;;;;;1.55;0.40;;;9.60;99.90;;;;;;5054902;28;20029;-66
2021/11/02 11:50:22;;;;;;;1.60;1.50;;;9.60;99.90;;;;;;5052879;28;20028;-66
2021/11/02 11:52:53;;;;;;;3.03;2.83;;;9.70;99.90;;;;;;5055164;22;20049;-64
2021/11/02 11:55:25;;;;;;;2.35;1.75;;;9.70;99.90;;;;;;5043601;28;20025;-63
2021/11/02 11:58:21;;;;;;;0.82;0.82;;;9.80;99.90;;;;;;5051626;28;20025;-62
2021/11/02 12:00:54;;;;;;;4.72;4.50;;;9.80;99.90;;;;;;5051558;28;20029;-62
2021/11/02 12:03:47;;;;;;;1.52;1.30;;;9.80;99.90;;;;;;5051270;28;20359;-63
2021/11/02 12:06:28;;;;;;;1.92;1.83;;;10.10;99.90;;;;;;5050559;28;20494;-64
2021/11/02 12:09:00;;;;;;;0.75;0.50;;;10.30;99.90;;;;;;5051112;28;20029;-64
2021/11/02 12:11:31;;;;;;;1.80;0.40;;;10.60;99.90;;;;;;5051226;28;20028;-62
2021/11/02 12:14:10;;;;;;;0.65;0.65;;;11.00;99.90;;;;;;5054698;28;20033;-62
2021/11/02 12:16:42;;;;;;;2.17;0.40;;;11.50;99.90;;;;;;5054612;28;20021;-61
2021/11/02 12:19:19;;;;;;;0.63;0.63;;;12.90;99.90;;;;;;5055451;28;20029;-63
2021/11/02 12:21:50;;;;;;;1.55;1.00;;;13.50;99.90;;;;;;5054808;28;20033;-64
2021/11/02 12:24:16;;;;;;;0.73;0.47;;;13.60;99.90;;;;;;5053823;28;20032;-63
2021/11/02 12:26:48;;;;;;;1.27;0.65;;;13.60;99.90;;;;;;5054045;28;20024;-63
2021/11/02 12:29:22;;;;;;;0.75;0.65;;;14.90;99.90;;;;;;5055012;28;20087;-62
2021/11/02 12:31:57;;;;;;;1.00;0.50;;;16.20;99.90;;;;;;5054937;28;20479;-63
2021/11/02 12:34:25;;;;;;;0.30;0.30;;;16.20;99.90;;;;;;5054448;28;20023;-64
2021/11/02 12:36:53;;;;;;;0.30;0.30;;;16.10;99.90;;;;;;5053403;28;20040;-64
2021/11/02 12:39:26;;;;;;;1.50;0.38;;;15.80;99.90;;;;;;5054711;28;20116;-64
2021/11/02 12:41:52;;;;;;;;;;;15.00;99.90;;;;;;5055373;28;20071;-64
2021/11/02 12:44:29;;;;;;;0.82;0.30;;;14.70;99.90;;;;;;5054068;28;19908;-63
2021/11/02 12:46:56;;;;;;;0.35;0.30;;;14.10;99.90;;;;;;5054695;28;20025;-62
2021/11/02 12:49:31;;;;;;;1.05;0.60;;;13.90;99.90;;;;;;5054224;28;20032;-64
2021/11/02 12:52:03;;;;;;;0.70;0.40;;;13.40;99.90;;;;;;5054589;28;20169;-64
2021/11/02 12:54:30;;;;;;;0.52;0.50;;;13.90;99.90;;;;;;5053756;28;20039;-65
2021/11/02 12:57:12;;;;;;;2.53;0.43;;;14.70;99.90;;;;;;5054400;28;20060;-65
2021/11/02 12:59:46;;;;;;;0.45;0.43;;;15.40;99.90;;;;;;5053297;28;20053;-64
2021/11/02 13:02:34;;;;;;;2.10;0.60;;;14.70;99.90;;;;;;5054526;28;20029;-63
2021/11/02 13:05:03;;;;;;;1.05;0.60;;;13.90;99.90;;;;;;5053972;28;20084;-64
2021/11/02 13:07:36;;;;;;;1.05;0.60;;;13.70;99.90;;;;;;5054130;28;20028;-63
2021/11/02 13:10:10;;;;;;;0.90;0.38;;;13.80;99.90;;;;;;5054269;28;20047;-62
2021/11/02 13:12:38;;;;;;;0.40;0.40;;;13.80;99.90;;;;;;5033705;28;20021;-64
2021/11/02 13:15:10;;;;;;;0.90;0.40;;;13.30;99.90;;;;;;5033713;28;20099;-62
2021/11/02 13:17:41;;;;;;;;;;;12.70;99.90;;;;;;5034788;28;20487;-63
2021/11/02 13:20:08;;;;;;;0.40;0.30;;;12.40;99.90;;;;;;5032671;28;19910;-63
2021/11/02 13:22:34;;;;;;;0.73;0.35;;;12.20;99.90;;;;;;5033772;28;20419;-64
2021/11/02 13:25:11;;;;;;;2.03;0.38;;;11.40;99.90;;;;;;5032761;28;20037;-63
2021/11/02 13:27:41;;;;;;;1.40;0.20;;;10.80;99.90;;;;;;5033973;28;20037;-65
2021/11/02 13:30:31;;;;;;;0.30;0.20;;;10.20;99.90;;;;;;5034449;28;20018;-66
2021/11/02 13:33:16;;;;;;;0.40;0.22;;;9.80;99.90;;;;;;5049931;28;20070;-71
2021/11/02 13:35:47;;;;;;;2.08;0.40;;;9.60;99.90;;;;;;5067524;28;20089;-72
2021/11/02 13:38:28;;;;;;;0.57;0.43;;;9.50;99.90;;;;;;5046179;28;20513;-71
2021/11/02 13:41:11;;;;;;;0.22;0.20;;;9.30;99.90;;;;;;5042215;28;20264;-70
2021/11/02 13:43:39;;;;;;;1.13;0.30;;;9.40;99.90;;;;;;5047572;28;20037;-70
2021/11/02 13:46:07;;;;;;;3.90;0.43;;;9.50;99.90;;;;;;5052917;28;20017;-71
2021/11/02 13:48:34;;;;;;;2.47;0.60;;;9.40;99.90;;;;;;5045066;28;20040;-72
2021/11/02 13:51:02;;;;;;;0.65;0.40;;;9.70;99.90;;;;;;5049552;28;20017;-70
2021/11/02 13:53:33;;;;;;;0.43;0.30;;;9.70;99.90;;;;;;5031995;28;20131;-72
2021/11/02 13:56:00;;;;;;;0.55;0.30;;;9.70;99.90;;;;;;5032907;28;20164;-71
2021/11/02 13:58:26;;;;;;;1.65;0.70;;;9.90;99.90;;;;;;5033392;28;20034;-70
2021/11/02 14:00:51;;;;;;;1.27;0.50;;;9.70;99.90;;;;;;5033323;28;20044;-72
2021/11/02 14:03:24;;;;;;;0.95;0.50;;;9.70;99.90;;;;;;5033376;28;20030;-71
2021/11/02 14:05:51;;;;;;;3.63;0.40;;;9.70;99.90;;;;;;5038311;28;20021;-72
2021/11/02 14:08:21;;;;;;;0.88;0.38;;;9.60;99.90;;;;;;5051421;28;20029;-72
2021/11/02 14:10:54;;;;;;;0.30;0.30;;;9.50;99.90;;;;;;5053229;28;20036;-71
2021/11/02 14:13:56;;;;;;;0.80;0.40;;;9.50;99.90;;;;;;5052829;28;20024;-71
2021/11/02 14:16:47;;;;;;;0.68;0.68;;;9.50;99.90;;;;;;5030232;28;20462;-71
2021/11/02 14:19:34;;;;;;;3.58;0.50;;;9.40;99.90;;;;;;5049539;28;20498;-71
2021/11/02 14:22:04;;;;;;;5.07;0.73;;;9.50;99.90;;;;;;5052604;28;20025;-71
2021/11/02 14:24:33;;;;;;;1.20;0.60;;;9.40;99.90;;;;;;5052355;28;20067;-70
2021/11/02 14:26:59;;;;;;;4.15;0.80;;;9.50;99.90;;;;;;5051962;28;20096;-72
2021/11/02 14:30:00;;;;;;;0.57;0.50;;;9.50;99.90;;;;;;5051621;28;20060;-72
2021/11/02 14:32:35;;;;;;;1.45;0.50;;;9.70;99.90;;;;;;4990858;28;20425;-72
2021/11/02 14:35:01;;;;;;;0.73;0.50;;;10.00;99.90;;;;;;5043310;28;20068;-72
2021/11/02 14:37:48;;;;;;;1.38;0.57;;;10.20;99.90;;;;;;5052410;28;20028;-71
2021/11/02 14:40:43;;;;;;;1.38;0.40;;;10.40;99.90;;;;;;5052695;28;20029;-71
2021/11/02 14:43:17;;;;;;;0.98;0.50;;;10.30;99.90;;;;;;5052723;28;20036;-70
2021/11/02 14:45:59;;;;;;;0.80;0.60;;;10.20;99.90;;;;;;5051954;28;20479;-71
2021/11/02 14:48:25;;;;;;;2.08;0.55;;;10.20;99.90;;;;;;5052504;28;20053;-71
2021/11/02 14:51:13;;;;;;;2.10;1.10;;;10.10;99.90;;;;;;5051332;28;20087;-71
2021/11/02 14:53:40;;;;;;;0.75;0.60;;;10.00;99.90;;;;;;5052242;28;20039;-71
2021/11/02 14:56:08;;;;;;;2.80;1.55;;;9.90;99.90;;;;;;5050279;28;20068;-71
2021/11/02 14:58:42;;;;;;;3.83;1.20;;;9.80;99.90;;;;;;5050967;28;20526;-70
2021/11/02 15:01:11;;;;;;;2.13;0.60;;;9.70;99.90;;;;;;5052235;28;20094;-71
2021/11/02 15:03:39;;;;;;;1.48;0.50;;;9.60;99.90;;;;;;5050860;28;20087;-71
2021/11/02 15:06:09;;;;;;;1.38;0.70;;;9.70;99.90;;;;;;5051420;28;20059;-71
2021/11/02 15:08:36;;;;;;;2.75;0.90;;;9.50;99.90;;;;;;5049042;28;20025;-70
2021/11/02 15:11:08;;;;;;;1.25;1.15;;;9.60;99.90;;;;;;5040572;28;20024;-69
2021/11/02 15:13:34;;;;;;;2.15;1.10;;;9.60;99.90;;;;;;5037765;28;20021;-70
2021/11/02 15:16:01;;;;;;;7.43;1.13;;;9.50;99.90;;;;;;5048443;28;20023;-69
2021/11/02 15:18:51;;;;;;;4.13;1.40;;;9.50;99.90;;;;;;5046180;28;20029;-70
2021/11/02 15:21:40;;;;;;;1.33;1.02;;;9.50;99.90;;;;;;5043948;28;20033;-70
2021/11/02 15:24:17;;;;;;;1.67;1.08;;;9.60;99.90;;;;;;5041125;28;20092;-73
2021/11/02 15:26:50;;;;;;;2.03;0.90;;;9.60;99.90;;;;;;5046948;28;20499;-71
2021/11/02 15:29:17;;;;;;;1.33;1.10;;;9.60;99.90;;;;;;5050267;28;20079;-71
2021/11/02 15:31:58;;;;;;;1.10;1.00;;;9.60;99.90;;;;;;5051522;28;20029;-71
2021/11/02 15:34:48;;;;;;;1.20;1.10;;;9.60;99.90;;;;;;5051162;28;20539;-71
2021/11/02 15:37:22;;;;;;;1.17;0.80;;;9.50;99.90;;;;;;5051267;28;20049;-71
2021/11/02 15:40:00;;;;;;;1.75;0.88;;;9.40;99.90;;;;;;5051566;28;20021;-71
2021/11/02 15:42:35;;;;;;;3.78;0.93;;;9.40;99.90;;;;;;5048589;28;20099;-71
2021/11/02 15:45:05;;;;;;;0.80;0.80;;;9.30;99.90;;;;;;5039888;28;20021;-72
2021/11/02 15:47:34;;;;;;;2.15;0.95;;;9.40;99.90;;;;;;5049032;28;20051;-75
2021/11/02 15:50:09;;;;;;;1.95;1.13;;;9.40;99.90;;;;;;5044118;28;20029;-73
2021/11/02 15:52:36;;;;;;;0.70;0.70;;;9.20;99.90;;;;;;5046758;28;20371;-75
2021/11/02 15:55:14;;;;;;;1.73;0.70;;;9.30;99.90;;;;;;5044008;28;20013;-75
2021/11/02 15:57:54;;;;;;;1.27;1.17;;;9.20;99.90;;;;;;5045438;28;20119;-74
2021/11/02 16:00:27;;;;;;;1.20;1.00;;;9.30;99.90;;;;;;5039840;28;20045;-75
2021/11/02 16:02:55;;;;;;;1.00;0.88;;;9.30;99.90;;;;;;5045176;28;20514;-74
2021/11/02 16:05:26;;;;;;;1.85;1.08;;;9.30;99.90;;;;;;5036349;28;20238;-75
2021/11/02 16:07:54;;;;;;;3.40;1.48;;;9.10;99.90;;;;;;5043131;28;20029;-75
2021/11/02 16:10:31;;;;;;;2.20;0.90;;;9.10;99.90;;;;;;5044242;28;20028;-75
2021/11/02 16:13:03;;;;;;;1.83;1.00;;;9.20;99.90;;;;;;5044071;28;20024;-74
2021/11/02 16:15:31;;;;;;;1.48;1.05;;;9.20;99.90;;;;;;5036750;28;20017;-79
2021/11/02 16:17:59;;;;;;;0.73;0.70;;;9.10;99.90;;;;;;5044955;28;20383;-78
2021/11/02 16:20:31;;;;;;;5.72;1.08;;;9.00;99.90;;;;;;5043679;28;20083;-78
2021/11/02 16:23:02;;;;;;;1.60;1.38;;;9.00;99.90;;;;;;5042181;28;20022;-79
2021/11/02 16:25:33;;;;;;;4.13;2.95;;;9.00;99.90;;;;;;5043644;28;20091;-79
2021/11/02 16:28:08;;;;;;;6.97;2.90;;;8.90;99.90;;;;;;5042213;28;20072;-77
2021/11/02 16:30:53;;;;;;;2.72;2.00;;;8.80;99.90;;;;;;5042083;28;20049;-79
2021/11/02 16:33:29;;;;;;;1.77;1.48;;;8.80;99.90;;;;;;5041001;28;20053;-75
2021/11/02 16:35:54;;;;;;;22.30;11.75;;;8.70;99.90;;;;;;5038724;28;20025;-74
2021/11/02 16:38:22;;;;;;;3.67;2.55;;;8.70;99.90;;;;;;5040322;28;20040;-74
2021/11/02 16:40:52;;;;;;;4.18;2.45;;;8.60;99.90;;;;;;5040488;28;20534;-74
2021/11/02 16:43:35;;;;;;;6.40;3.30;;;8.60;99.90;;;;;;5041238;28;20132;-77
2021/11/02 16:46:10;;;;;;;5.22;3.50;;;8.50;99.90;;;;;;5040975;28;20505;-76
2021/11/02 16:48:40;;;;;;;5.68;3.40;;;8.30;99.90;;;;;;5040946;28;20112;-77
2021/11/02 16:51:06;;;;;;;9.43;5.32;;;8.20;99.90;;;;;;5040063;28;20052;-76
2021/11/02 16:53:32;;;;;;;5.68;3.03;;;8.10;99.90;;;;;;5037106;28;20075;-76
2021/11/02 16:56:07;;;;;;;4.60;3.80;;;8.00;99.90;;;;;;5042723;28;20021;-75
2021/11/02 16:58:34;;;;;;;5.00;2.70;;;7.80;99.90;;;;;;5040974;28;20039;-75
2021/11/02 17:01:34;;;;;;;2.55;2.17;;;7.70;99.90;;;;;;5042874;28;20014;-74
2021/11/02 17:04:13;;;;;;;3.28;2.97;;;7.70;99.90;;;;;;5021905;28;20029;-75
2021/11/02 17:06:39;;;;;;;2.40;2.20;;;7.70;99.90;;;;;;5043790;28;20576;-77
2021/11/02 17:09:06;;;;;;;4.25;2.53;;;7.80;99.90;;;;;;5041853;28;20487;-77
2021/11/02 17:11:48;;;;;;;4.72;2.67;;;7.70;99.90;;;;;;5042835;28;20017;-78
2021/11/02 17:14:15;;;;;;;7.10;4.30;;;7.80;99.90;;;;;;5044246;28;20024;-75
2021/11/02 17:16:49;;;;;;;4.90;4.07;;;7.80;99.90;;;;;;5043290;28;20653;-75
2021/11/02 17:19:17;;;;;;;5.80;4.57;;;7.80;99.90;;;;;;5042916;28;20103;-75
2021/11/02 17:21:48;;;;;;;8.02;5.57;;;7.80;99.90;;;;;;5041600;28;20030;-74
2021/11/02 17:24:14;;;;;;;24.70;15.93;;;7.80;99.90;;;;;;5043187;28;20036;-77
2021/11/02 17:26:40;;;;;;;28.55;18.83;;;7.80;99.90;;;;;;5045487;28;20029;-78
2021/11/02 17:29:07;;;;;;;33.80;23.95;;;8.10;99.90;;;;;;5047883;28;20024;-77
2021/11/02 17:31:39;;;;;;;21.55;11.57;;;8.40;99.90;;;;;;5044352;28;20111;-78
2021/11/02 17:34:23;;;;;;;21.73;10.75;;;8.30;99.90;;;;;;5042312;28;20022;-75
2021/11/02 17:36:56;;;;;;;7.32;5.05;;;8.10;99.90;;;;;;5041402;28;20021;-76
2021/11/02 17:39:22;;;;;;;7.75;4.20;;;8.00;99.90;;;;;;5044046;28;20053;-73
2021/11/02 17:41:50;;;;;;;4.18;2.95;;;7.90;99.90;;;;;;5038509;28;20519;-70
2021/11/02 17:44:16;;;;;;;6.22;4.68;;;7.80;99.90;;;;;;5033270;28;20398;-70
2021/11/02 17:46:42;;;;;;;3.63;3.28;;;7.80;99.90;;;;;;5033606;28;20028;-70
2021/11/02 17:49:09;;;;;;;6.35;5.18;;;7.70;99.90;;;;;;5033670;28;20036;-70
2021/11/02 17:51:35;;;;;;;7.70;5.38;;;7.70;99.90;;;;;;5033309;28;20476;-70
2021/11/02 17:54:00;;;;;;;7.47;4.75;;;7.60;99.90;;;;;;5033552;28;20084;-70
2021/11/02 17:56:26;;;;;;;10.50;7.30;;;7.60;99.90;;;;;;5044777;28;20017;-70
2021/11/02 17:58:53;;;;;;;5.43;4.60;;;7.60;99.90;;;;;;5053214;28;20700;-69
2021/11/02 18:01:21;;;;;;;4.75;3.88;;;7.60;99.90;;;;;;5053198;28;20021;-69
2021/11/02 18:03:47;;;;;;;6.32;4.13;;;7.60;99.90;;;;;;5052835;28;20037;-69
2021/11/02 18:06:15;;;;;;;4.78;3.92;;;7.70;99.90;;;;;;5052532;28;20037;-69
2021/11/02 18:08:46;;;;;;;3.45;3.03;;;7.60;99.90;;;;;;5053168;28;20526;-69
2021/11/02 18:11:12;;;;;;;3.38;2.50;;;7.60;99.90;;;;;;5065968;22;20041;-65
2021/11/02 18:34:11;;;;;;;5.38;4.45;;;7.20;99.90;;;;;;5026370;28;20116;-74
2021/11/02 18:36:37;;;;;;;5.90;4.32;;;7.10;99.90;;;;;;5022866;28;20037;-73
2021/11/02 18:39:04;;;;;;;4.47;4.07;;;7.00;99.90;;;;;;5021677;28;20080;-73
2021/11/02 18:41:29;;;;;;;6.43;5.75;;;7.00;99.90;;;;;;5022370;28;20056;-73
2021/11/02 18:43:56;;;;;;;2.83;2.53;;;6.90;99.90;;;;;;5023346;28;20057;-72
2021/11/02 18:46:23;;;;;;;12.60;7.35;;;6.70;99.90;;;;;;5002882;28;20018;-73
2021/11/02 18:48:49;;;;;;;7.68;6.20;;;6.70;99.90;;;;;;5021265;28;20024;-78
2021/11/02 18:51:15;;;;;;;6.95;6.25;;;6.70;99.90;;;;;;5012783;28;20484;-74